createdAt,value
2018-09-12T00:00:11.436Z,23.70
2018-09-12T00:01:15.862Z,23.70
2018-09-12T00:02:20.285Z,23.70
2018-09-12T00:03:24.584Z,23.70
2018-09-12T00:04:28.831Z,23.70
2018-09-12T00:05:33.330Z,23.70
2018-09-12T00:06:37.827Z,23.70
2018-09-12T00:07:42.113Z,23.70
2018-09-12T00:08:46.428Z,23.70
2018-09-12T00:09:50.737Z,23.70
2018-09-12T00:10:55.092Z,23.70
2018-09-12T00:11:59.558Z,23.70
2018-09-12T00:13:03.979Z,23.70
2018-09-12T00:14:08.183Z,23.70
2018-09-12T00:15:12.580Z,23.70
2018-09-12T00:16:17.020Z,23.70
2018-09-12T00:17:23.692Z,23.70
2018-09-12T00:18:27.961Z,23.70
2018-09-12T00:19:32.363Z,23.70
2018-09-12T00:20:36.788Z,23.70
2018-09-12T00:21:41.041Z,23.70
2018-09-12T00:22:45.351Z,23.70
2018-09-12T00:23:49.749Z,23.70
2018-09-12T00:24:53.981Z,23.70
2018-09-12T00:25:58.401Z,23.70
2018-09-12T00:27:02.849Z,23.70
2018-09-12T00:28:07.259Z,23.70
2018-09-12T00:29:11.540Z,23.70
2018-09-12T00:30:15.791Z,23.70
2018-09-12T00:31:20.087Z,23.70
2018-09-12T00:32:24.530Z,23.70
2018-09-12T00:33:28.822Z,23.70
2018-09-12T00:34:33.103Z,23.70
2018-09-12T00:35:37.429Z,23.70
2018-09-12T00:36:41.816Z,23.70
2018-09-12T00:37:46.201Z,23.70
2018-09-12T00:38:50.462Z,23.70
2018-09-12T00:39:54.888Z,23.70
2018-09-12T00:40:59.312Z,23.70
2018-09-12T00:42:03.710Z,23.70
2018-09-12T00:43:07.936Z,23.70
2018-09-12T00:44:12.366Z,23.70
2018-09-12T00:45:16.787Z,23.70
2018-09-12T00:46:21.242Z,23.70
2018-09-12T00:47:25.700Z,23.70
2018-09-12T00:48:29.931Z,23.70
2018-09-12T00:49:34.196Z,23.70
2018-09-12T00:50:38.737Z,23.70
2018-09-12T00:51:43.043Z,23.70
2018-09-12T00:52:47.470Z,23.70
2018-09-12T00:53:51.905Z,23.70
2018-09-12T00:54:56.451Z,23.70
2018-09-12T00:56:00.708Z,23.70
2018-09-12T00:57:04.993Z,23.70
2018-09-12T00:58:09.475Z,23.70
2018-09-12T00:59:13.932Z,23.70
2018-09-12T01:00:18.296Z,23.70
2018-09-12T01:01:22.738Z,23.70
2018-09-12T01:02:27.230Z,23.70
2018-09-12T01:03:31.560Z,23.70
2018-09-12T01:04:35.893Z,23.70
2018-09-12T01:05:40.196Z,23.70
2018-09-12T01:06:44.689Z,23.70
2018-09-12T01:07:49.110Z,23.70
2018-09-12T01:08:53.564Z,23.70
2018-09-12T01:09:58.001Z,23.70
2018-09-12T01:11:02.362Z,23.70
2018-09-12T01:12:06.884Z,23.70
2018-09-12T01:13:11.362Z,23.70
2018-09-12T01:14:15.656Z,23.70
2018-09-12T01:15:20.091Z,23.70
2018-09-12T01:16:24.679Z,23.70
2018-09-12T01:17:29.128Z,23.70
2018-09-12T01:18:33.443Z,23.70
2018-09-12T01:19:37.706Z,23.70
2018-09-12T01:20:41.939Z,23.70
2018-09-12T01:21:46.440Z,23.70
2018-09-12T01:22:50.832Z,23.70
2018-09-12T01:23:55.152Z,23.70
2018-09-12T01:24:59.582Z,23.70
2018-09-12T01:26:04.008Z,23.80
2018-09-12T01:27:08.466Z,23.70
2018-09-12T01:28:12.769Z,23.70
2018-09-12T01:29:17.185Z,23.70
2018-09-12T01:30:21.572Z,23.70
2018-09-12T01:31:25.979Z,23.70
2018-09-12T01:32:30.460Z,23.70
2018-09-12T01:33:34.925Z,23.70
2018-09-12T01:34:39.372Z,23.70
2018-09-12T01:35:43.633Z,23.70
2018-09-12T01:36:48.029Z,23.70
2018-09-12T01:37:52.474Z,23.70
2018-09-12T01:38:56.922Z,23.70
2018-09-12T01:40:01.419Z,23.70
2018-09-12T01:41:05.933Z,23.70
2018-09-12T01:42:10.373Z,23.70
2018-09-12T01:43:14.913Z,23.70
2018-09-12T01:44:19.400Z,23.70
2018-09-12T01:45:23.697Z,23.70
2018-09-12T01:46:27.999Z,23.70
2018-09-12T01:47:32.283Z,23.70
2018-09-12T01:48:36.756Z,23.70
2018-09-12T01:49:41.340Z,23.70
2018-09-12T01:50:45.562Z,23.70
2018-09-12T01:51:49.989Z,23.70
2018-09-12T01:52:54.207Z,23.70
2018-09-12T01:53:58.395Z,23.70
2018-09-12T01:55:02.642Z,23.70
2018-09-12T01:56:06.898Z,23.70
2018-09-12T01:57:11.332Z,23.70
2018-09-12T01:58:15.558Z,23.70
2018-09-12T01:59:19.993Z,23.70
2018-09-12T02:00:24.418Z,23.70
2018-09-12T02:01:28.633Z,23.70
2018-09-12T02:02:32.900Z,23.70
2018-09-12T02:03:37.284Z,23.70
2018-09-12T02:04:41.486Z,23.70
2018-09-12T02:05:45.721Z,23.70
2018-09-12T02:06:50.001Z,23.70
2018-09-12T02:07:54.456Z,23.70
2018-09-12T02:08:58.944Z,23.70
2018-09-12T02:10:03.409Z,23.70
2018-09-12T02:11:07.771Z,23.70
2018-09-12T02:12:12.125Z,23.70
2018-09-12T02:13:16.609Z,23.70
2018-09-12T02:14:21.063Z,23.70
2018-09-12T02:15:25.430Z,23.70
2018-09-12T02:16:29.772Z,23.70
2018-09-12T02:17:34.262Z,23.70
2018-09-12T02:18:38.546Z,23.70
2018-09-12T02:19:42.987Z,23.70
2018-09-12T02:20:47.395Z,23.70
2018-09-12T02:21:51.897Z,23.70
2018-09-12T02:22:56.350Z,23.70
2018-09-12T02:24:00.648Z,23.70
2018-09-12T02:25:05.118Z,23.70
2018-09-12T02:26:09.662Z,23.70
2018-09-12T02:27:14.127Z,23.70
2018-09-12T02:28:18.402Z,23.70
2018-09-12T02:29:22.854Z,23.70
2018-09-12T02:30:27.160Z,23.70
2018-09-12T02:31:31.409Z,23.70
2018-09-12T02:32:35.801Z,23.70
2018-09-12T02:33:40.217Z,23.70
2018-09-12T02:34:44.541Z,23.60
2018-09-12T02:35:49.021Z,23.70
2018-09-12T02:36:53.510Z,23.60
2018-09-12T02:37:57.772Z,23.70
2018-09-12T02:39:02.034Z,23.70
2018-09-12T02:40:06.474Z,23.70
2018-09-12T02:41:10.721Z,23.70
2018-09-12T02:42:14.987Z,23.70
2018-09-12T02:43:19.397Z,23.70
2018-09-12T02:44:23.692Z,23.60
2018-09-12T02:45:27.952Z,23.60
2018-09-12T02:46:32.193Z,23.70
2018-09-12T02:47:36.741Z,23.70
2018-09-12T02:48:41.214Z,23.70
2018-09-12T02:49:45.447Z,23.70
2018-09-12T02:50:49.819Z,23.70
2018-09-12T02:51:54.034Z,23.60
2018-09-12T02:52:58.449Z,23.70
2018-09-12T02:54:02.929Z,23.70
2018-09-12T02:55:07.314Z,23.60
2018-09-12T02:56:11.763Z,23.70
2018-09-12T02:57:16.224Z,23.60
2018-09-12T02:58:20.702Z,23.70
2018-09-12T02:59:25.168Z,23.60
2018-09-12T03:00:29.586Z,23.70
2018-09-12T03:01:34.006Z,23.60
2018-09-12T03:02:38.452Z,23.60
2018-09-12T03:03:42.977Z,23.70
2018-09-12T03:04:47.445Z,23.70
2018-09-12T03:05:51.729Z,23.60
2018-09-12T03:06:56.235Z,23.70
2018-09-12T03:08:01.537Z,23.70
2018-09-12T03:09:06.240Z,23.70
2018-09-12T03:10:10.712Z,23.70
2018-09-12T03:11:15.017Z,23.70
2018-09-12T03:12:19.485Z,23.70
2018-09-12T03:13:23.768Z,23.70
2018-09-12T03:14:28.236Z,23.70
2018-09-12T03:15:32.573Z,23.70
2018-09-12T03:16:37.090Z,23.70
2018-09-12T03:17:41.373Z,23.70
2018-09-12T03:18:45.639Z,23.70
2018-09-12T03:19:50.141Z,23.70
2018-09-12T03:20:54.570Z,23.70
2018-09-12T03:21:58.780Z,23.70
2018-09-12T03:23:03.110Z,23.70
2018-09-12T03:24:07.560Z,23.60
2018-09-12T03:25:12.039Z,23.70
2018-09-12T03:26:16.406Z,23.70
2018-09-12T03:27:20.713Z,23.70
2018-09-12T03:28:25.052Z,23.60
2018-09-12T03:29:29.397Z,23.70
2018-09-12T03:30:33.645Z,23.70
2018-09-12T03:31:38.198Z,23.70
2018-09-12T03:32:42.673Z,23.70
2018-09-12T03:33:47.179Z,23.70
2018-09-12T03:34:51.485Z,23.70
2018-09-12T03:35:55.934Z,23.70
2018-09-12T03:37:00.222Z,23.70
2018-09-12T03:38:04.681Z,23.70
2018-09-12T03:39:09.174Z,23.70
2018-09-12T03:40:13.670Z,23.70
2018-09-12T03:41:18.020Z,23.70
2018-09-12T03:42:22.557Z,23.70
2018-09-12T03:43:26.921Z,23.70
2018-09-12T03:44:31.266Z,23.70
2018-09-12T03:45:35.798Z,23.60
2018-09-12T03:46:40.031Z,23.60
2018-09-12T03:47:44.284Z,23.60
2018-09-12T03:48:48.613Z,23.60
2018-09-12T03:49:52.851Z,23.60
2018-09-12T03:50:57.135Z,23.60
2018-09-12T03:52:01.517Z,23.60
2018-09-12T03:53:05.914Z,23.70
2018-09-12T03:54:10.337Z,23.60
2018-09-12T03:55:14.769Z,23.60
2018-09-12T03:56:19.024Z,23.70
2018-09-12T03:57:23.462Z,23.70
2018-09-12T03:58:27.860Z,23.70
2018-09-12T03:59:32.106Z,23.70
2018-09-12T04:00:36.552Z,23.70
2018-09-12T04:01:40.810Z,23.70
2018-09-12T04:02:45.265Z,23.70
2018-09-12T04:03:49.677Z,23.70
2018-09-12T04:04:53.952Z,23.60
2018-09-12T04:05:58.436Z,23.70
2018-09-12T04:07:02.726Z,23.70
2018-09-12T04:08:07.298Z,23.70
2018-09-12T04:09:11.777Z,23.70
2018-09-12T04:10:16.232Z,23.70
2018-09-12T04:11:20.469Z,23.70
2018-09-12T04:12:24.910Z,23.70
2018-09-12T04:13:29.363Z,23.70
2018-09-12T04:14:33.602Z,23.70
2018-09-12T04:15:37.862Z,23.70
2018-09-12T04:16:42.415Z,23.70
2018-09-12T04:17:46.843Z,23.70
2018-09-12T04:18:51.269Z,23.70
2018-09-12T04:19:55.778Z,23.70
2018-09-12T04:21:00.209Z,23.70
2018-09-12T04:22:04.647Z,23.70
2018-09-12T04:23:08.978Z,23.70
2018-09-12T04:24:13.494Z,23.70
2018-09-12T04:25:17.760Z,23.70
2018-09-12T04:26:22.278Z,23.70
2018-09-12T04:27:26.780Z,23.60
2018-09-12T04:28:31.126Z,23.70
2018-09-12T04:29:35.480Z,23.70
2018-09-12T04:30:39.874Z,23.70
2018-09-12T04:31:44.272Z,23.70
2018-09-12T04:32:48.677Z,23.70
2018-09-12T04:33:53.156Z,23.70
2018-09-12T04:34:57.571Z,23.70
2018-09-12T04:36:01.825Z,23.70
2018-09-12T04:37:06.310Z,23.70
2018-09-12T04:38:10.586Z,23.70
2018-09-12T04:39:14.894Z,23.70
2018-09-12T04:40:19.273Z,23.70
2018-09-12T04:41:23.614Z,23.70
2018-09-12T04:42:28.076Z,23.70
2018-09-12T04:43:32.571Z,23.70
2018-09-12T04:44:36.814Z,23.70
2018-09-12T04:45:41.267Z,23.70
2018-09-12T04:46:45.739Z,23.70
2018-09-12T04:47:50.104Z,23.70
2018-09-12T04:48:54.517Z,23.70
2018-09-12T04:49:58.748Z,23.70
2018-09-12T04:51:03.221Z,23.70
2018-09-12T04:52:07.818Z,23.70
2018-09-12T04:53:12.078Z,23.70
2018-09-12T04:54:16.549Z,23.70
2018-09-12T04:55:20.930Z,23.70
2018-09-12T04:56:25.410Z,23.70
2018-09-12T04:57:30.282Z,23.70
2018-09-12T04:58:34.839Z,23.70
2018-09-12T04:59:39.299Z,23.70
2018-09-12T05:00:43.869Z,23.70
2018-09-12T05:01:48.343Z,23.70
2018-09-12T05:02:52.819Z,23.70
2018-09-12T05:03:57.078Z,23.70
2018-09-12T05:05:01.406Z,23.70
2018-09-12T05:06:05.813Z,23.70
2018-09-12T05:07:10.371Z,23.70
2018-09-12T05:08:14.845Z,23.70
2018-09-12T05:09:19.319Z,23.70
2018-09-12T05:10:23.898Z,23.70
2018-09-12T05:11:28.307Z,23.70
2018-09-12T05:12:32.819Z,23.70
2018-09-12T05:13:37.362Z,23.70
2018-09-12T05:14:41.891Z,23.70
2018-09-12T05:15:46.500Z,23.70
2018-09-12T05:16:50.856Z,23.70
2018-09-12T05:17:55.371Z,23.70
2018-09-12T05:19:00.552Z,23.70
2018-09-12T05:20:05.055Z,23.70
2018-09-12T05:21:09.438Z,23.70
2018-09-12T05:22:14.192Z,23.70
2018-09-12T05:23:18.931Z,23.70
2018-09-12T05:24:23.432Z,23.70
2018-09-12T05:25:27.772Z,23.70
2018-09-12T05:26:32.526Z,23.70
2018-09-12T05:27:37.147Z,23.70
2018-09-12T05:28:41.643Z,23.60
2018-09-12T05:29:46.159Z,23.60
2018-09-12T05:30:50.537Z,23.60
2018-09-12T05:31:54.908Z,23.60
2018-09-12T05:32:59.360Z,23.60
2018-09-12T05:34:03.917Z,23.60
2018-09-12T05:35:08.613Z,23.60
2018-09-12T05:36:13.189Z,23.60
2018-09-12T05:37:17.698Z,23.60
2018-09-12T05:38:22.187Z,23.60
2018-09-12T05:39:26.511Z,23.60
2018-09-12T05:40:30.762Z,23.60
2018-09-12T05:41:35.150Z,23.60
2018-09-12T05:42:39.649Z,23.60
2018-09-12T05:43:44.081Z,23.60
2018-09-12T05:44:48.589Z,23.60
2018-09-12T05:45:53.084Z,23.60
2018-09-12T05:46:57.595Z,23.60
2018-09-12T05:48:02.133Z,23.60
2018-09-12T05:49:06.698Z,23.60
2018-09-12T05:50:11.334Z,23.60
2018-09-12T05:51:15.658Z,23.60
2018-09-12T05:52:20.237Z,23.60
2018-09-12T05:53:24.744Z,23.60
2018-09-12T05:54:29.281Z,23.60
2018-09-12T05:55:33.748Z,23.60
2018-09-12T05:56:38.169Z,23.60
2018-09-12T05:57:42.554Z,23.60
2018-09-12T05:58:47.058Z,23.60
2018-09-12T05:59:51.452Z,23.60
2018-09-12T06:00:55.841Z,23.60
2018-09-12T06:02:00.195Z,23.60
2018-09-12T06:03:04.620Z,23.60
2018-09-12T06:04:09.036Z,23.60
2018-09-12T06:05:13.457Z,23.60
2018-09-12T06:06:17.902Z,23.60
2018-09-12T06:07:22.299Z,23.60
2018-09-12T06:08:27.642Z,23.60
2018-09-12T06:09:32.250Z,23.60
2018-09-12T06:10:36.825Z,23.60
2018-09-12T06:11:41.336Z,23.60
2018-09-12T06:12:45.730Z,23.60
2018-09-12T06:13:50.201Z,23.60
2018-09-12T06:14:54.654Z,23.60
2018-09-12T06:15:59.143Z,23.60
2018-09-12T06:17:03.668Z,23.60
2018-09-12T06:18:08.210Z,23.60
2018-09-12T06:19:12.593Z,23.60
2018-09-12T06:20:17.035Z,23.60
2018-09-12T06:21:21.451Z,23.60
2018-09-12T06:22:25.915Z,23.60
2018-09-12T06:23:30.312Z,23.60
2018-09-12T06:24:34.700Z,23.60
2018-09-12T06:25:39.066Z,23.60
2018-09-12T06:26:43.565Z,23.60
2018-09-12T06:27:48.150Z,23.50
2018-09-12T06:28:52.596Z,23.50
2018-09-12T06:29:57.070Z,23.60
2018-09-12T06:31:02.167Z,23.60
2018-09-12T06:32:06.503Z,23.60
2018-09-12T06:33:10.974Z,23.60
2018-09-12T06:34:15.372Z,23.50
2018-09-12T06:35:19.895Z,23.60
2018-09-12T06:36:24.418Z,23.60
2018-09-12T06:37:28.956Z,23.60
2018-09-12T06:38:33.339Z,23.60
2018-09-12T06:39:37.716Z,23.60
2018-09-12T06:40:42.161Z,23.60
2018-09-12T06:41:46.463Z,23.60
2018-09-12T06:42:50.699Z,23.60
2018-09-12T06:43:54.992Z,23.60
2018-09-12T06:44:59.395Z,23.60
2018-09-12T06:46:03.664Z,23.60
2018-09-12T06:47:07.889Z,23.60
2018-09-12T06:48:12.151Z,23.60
2018-09-12T06:49:16.420Z,23.60
2018-09-12T06:50:20.808Z,23.60
2018-09-12T06:51:25.276Z,23.60
2018-09-12T06:52:29.707Z,23.60
2018-09-12T06:53:34.112Z,23.60
2018-09-12T06:54:38.387Z,23.50
2018-09-12T06:55:42.864Z,23.50
2018-09-12T06:56:47.359Z,23.50
2018-09-12T06:57:51.668Z,23.50
2018-09-12T06:58:56.003Z,23.50
2018-09-12T07:00:00.458Z,23.50
2018-09-12T07:01:04.797Z,23.50
2018-09-12T07:02:09.021Z,23.50
2018-09-12T07:03:13.421Z,23.50
2018-09-12T07:04:17.713Z,23.50
2018-09-12T07:05:22.150Z,23.50
2018-09-12T07:06:26.725Z,23.50
2018-09-12T07:07:31.356Z,23.50
2018-09-12T07:08:35.733Z,23.60
2018-09-12T07:09:40.069Z,23.50
2018-09-12T07:10:44.571Z,23.50
2018-09-12T07:11:49.082Z,23.50
2018-09-12T07:12:53.594Z,23.50
2018-09-12T07:13:57.894Z,23.50
2018-09-12T07:15:02.399Z,23.50
2018-09-12T07:16:06.811Z,23.50
2018-09-12T07:17:11.228Z,23.50
2018-09-12T07:18:15.749Z,23.50
2018-09-12T07:19:20.224Z,23.50
2018-09-12T07:20:24.680Z,23.50
2018-09-12T07:21:29.168Z,23.50
2018-09-12T07:22:33.605Z,23.50
2018-09-12T07:23:37.974Z,23.50
2018-09-12T07:24:42.431Z,23.50
2018-09-12T07:25:46.796Z,23.50
2018-09-12T07:26:51.034Z,23.40
2018-09-12T07:27:55.444Z,23.40
2018-09-12T07:28:59.707Z,23.40
2018-09-12T07:30:04.276Z,23.30
2018-09-12T07:31:09.307Z,23.30
2018-09-12T07:32:13.789Z,23.30
2018-09-12T07:33:18.242Z,23.30
2018-09-12T07:34:22.536Z,23.30
2018-09-12T07:35:26.986Z,23.20
2018-09-12T07:36:31.208Z,23.20
2018-09-12T07:37:35.667Z,23.20
2018-09-12T07:38:40.213Z,23.10
2018-09-12T07:39:44.469Z,23.10
2018-09-12T07:40:49.167Z,23.10
2018-09-12T07:41:53.601Z,23.10
2018-09-12T07:42:58.188Z,23.10
2018-09-12T07:44:02.498Z,23.10
2018-09-12T07:45:06.987Z,23.10
2018-09-12T07:46:11.421Z,23.10
2018-09-12T07:47:15.924Z,23.00
2018-09-12T07:48:20.495Z,23.00
2018-09-12T07:49:24.985Z,23.00
2018-09-12T07:50:29.401Z,23.00
2018-09-12T07:51:33.752Z,23.00
2018-09-12T07:52:38.238Z,23.00
2018-09-12T07:53:42.759Z,23.00
2018-09-12T07:54:47.253Z,23.00
2018-09-12T07:55:51.594Z,23.10
2018-09-12T07:56:55.954Z,23.00
2018-09-12T07:58:00.301Z,23.00
2018-09-12T07:59:04.950Z,23.10
2018-09-12T08:00:09.470Z,23.00
2018-09-12T08:01:13.885Z,23.00
2018-09-12T08:02:18.445Z,23.00
2018-09-12T08:03:22.917Z,22.90
2018-09-12T08:04:27.583Z,22.90
2018-09-12T08:05:32.186Z,22.90
2018-09-12T08:06:36.640Z,22.90
2018-09-12T08:07:41.220Z,22.90
2018-09-12T08:08:45.863Z,22.90
2018-09-12T08:09:50.283Z,22.90
2018-09-12T08:10:54.739Z,22.90
2018-09-12T08:11:59.386Z,22.90
2018-09-12T08:13:03.979Z,22.90
2018-09-12T08:14:08.507Z,22.90
2018-09-12T08:15:13.098Z,22.90
2018-09-12T08:16:17.718Z,22.90
2018-09-12T08:17:22.011Z,22.90
2018-09-12T08:18:26.368Z,22.90
2018-09-12T08:19:30.957Z,22.90
2018-09-12T08:20:35.370Z,22.80
2018-09-12T08:21:39.973Z,22.80
2018-09-12T08:22:44.302Z,22.80
2018-09-12T08:23:48.882Z,22.90
2018-09-12T08:24:53.480Z,22.90
2018-09-12T08:25:57.931Z,22.90
2018-09-12T08:27:02.335Z,23.00
2018-09-12T08:28:06.724Z,22.90
2018-09-12T08:29:11.238Z,23.00
2018-09-12T08:30:15.792Z,22.90
2018-09-12T08:31:20.221Z,22.90
2018-09-12T08:32:24.588Z,23.00
2018-09-12T08:33:28.944Z,23.00
2018-09-12T08:34:33.445Z,23.00
2018-09-12T08:35:37.954Z,23.00
2018-09-12T08:36:42.368Z,22.90
2018-09-12T08:37:46.652Z,22.90
2018-09-12T08:38:51.166Z,22.90
2018-09-12T08:39:55.417Z,23.00
2018-09-12T08:40:59.815Z,23.00
2018-09-12T08:42:04.322Z,23.00
2018-09-12T08:43:08.798Z,23.00
2018-09-12T08:44:13.295Z,23.00
2018-09-12T08:45:17.870Z,23.00
2018-09-12T08:46:22.391Z,23.00
2018-09-12T08:47:26.910Z,23.10
2018-09-12T08:48:31.303Z,23.00
2018-09-12T08:49:35.801Z,23.00
2018-09-12T08:50:40.217Z,23.00
2018-09-12T08:51:44.704Z,23.10
2018-09-12T08:52:49.336Z,23.00
2018-09-12T08:53:53.708Z,23.00
2018-09-12T08:54:58.274Z,23.00
2018-09-12T08:56:02.610Z,23.10
2018-09-12T08:57:07.035Z,23.00
2018-09-12T08:58:11.337Z,23.00
2018-09-12T08:59:15.839Z,22.90
2018-09-12T09:00:20.395Z,22.90
2018-09-12T09:01:25.207Z,23.00
2018-09-12T09:02:29.833Z,23.00
2018-09-12T09:03:34.135Z,22.90
2018-09-12T09:04:38.769Z,22.90
2018-09-12T09:05:43.312Z,22.90
2018-09-12T09:06:47.694Z,22.90
2018-09-12T09:07:51.997Z,22.90
2018-09-12T09:08:56.503Z,22.90
2018-09-12T09:10:00.964Z,22.90
2018-09-12T09:11:05.344Z,23.00
2018-09-12T09:12:09.987Z,23.00
2018-09-12T09:13:14.399Z,23.00
2018-09-12T09:14:19.611Z,23.00
2018-09-12T09:15:23.956Z,23.00
2018-09-12T09:16:28.600Z,23.00
2018-09-12T09:17:33.073Z,22.90
2018-09-12T09:18:37.461Z,23.00
2018-09-12T09:19:41.962Z,23.00
2018-09-12T09:20:46.456Z,23.00
2018-09-12T09:21:51.949Z,23.00
2018-09-12T09:22:56.339Z,23.10
2018-09-12T09:24:00.577Z,23.10
2018-09-12T09:25:04.908Z,23.10
2018-09-12T09:26:09.324Z,23.20
2018-09-12T09:27:13.638Z,23.20
2018-09-12T09:28:17.968Z,23.20
2018-09-12T09:29:22.354Z,23.20
2018-09-12T09:30:26.855Z,23.20
2018-09-12T09:31:31.474Z,23.20
2018-09-12T09:32:35.975Z,23.20
2018-09-12T09:33:40.335Z,23.20
2018-09-12T09:34:44.630Z,23.20
2018-09-12T09:35:49.057Z,23.10
2018-09-12T09:36:53.718Z,23.10
2018-09-12T09:37:58.247Z,23.10
2018-09-12T09:39:02.565Z,23.10
2018-09-12T09:40:06.970Z,23.10
2018-09-12T09:41:11.358Z,23.00
2018-09-12T09:42:15.996Z,23.10
2018-09-12T09:43:20.702Z,23.00
2018-09-12T09:44:25.038Z,23.00
2018-09-12T09:45:29.605Z,23.00
2018-09-12T09:46:34.440Z,23.00
2018-09-12T09:47:38.807Z,23.00
2018-09-12T09:48:43.285Z,22.90
2018-09-12T09:49:47.809Z,22.90
2018-09-12T09:50:52.150Z,22.90
2018-09-12T09:51:56.481Z,22.90
2018-09-12T09:53:00.797Z,22.90
2018-09-12T09:54:05.119Z,22.90
2018-09-12T09:55:09.670Z,22.90
2018-09-12T09:56:14.230Z,23.00
2018-09-12T09:57:18.605Z,23.00
2018-09-12T09:58:23.030Z,23.00
2018-09-12T09:59:27.901Z,23.00
2018-09-12T10:00:32.367Z,23.10
2018-09-12T10:01:36.838Z,23.10
2018-09-12T10:02:41.310Z,23.10
2018-09-12T10:03:45.672Z,23.10
2018-09-12T10:04:52.145Z,23.10
2018-09-12T10:05:56.481Z,23.20
2018-09-12T10:07:01.129Z,23.20
2018-09-12T10:08:05.516Z,23.20
2018-09-12T10:09:09.825Z,23.20
2018-09-12T10:10:14.297Z,23.20
2018-09-12T10:11:18.720Z,23.20
2018-09-12T10:12:22.993Z,23.20
2018-09-12T10:13:27.582Z,23.20
2018-09-12T10:14:31.846Z,23.20
2018-09-12T10:15:36.110Z,23.20
2018-09-12T10:16:40.358Z,23.20
2018-09-12T10:17:44.608Z,23.20
2018-09-12T10:18:49.180Z,23.20
2018-09-12T10:19:53.628Z,23.20
2018-09-12T10:20:58.073Z,23.20
2018-09-12T10:22:02.644Z,23.20
2018-09-12T10:23:07.114Z,23.20
2018-09-12T10:24:11.623Z,23.20
2018-09-12T10:25:16.076Z,23.30
2018-09-12T10:26:20.489Z,23.20
2018-09-12T10:27:25.000Z,23.20
2018-09-12T10:28:29.440Z,23.20
2018-09-12T10:29:33.760Z,23.20
2018-09-12T10:30:38.119Z,23.20
2018-09-12T10:31:42.418Z,23.20
2018-09-12T10:32:46.728Z,23.20
2018-09-12T10:33:51.023Z,23.20
2018-09-12T10:34:55.282Z,23.20
2018-09-12T10:35:59.690Z,23.20
2018-09-12T10:37:04.163Z,23.20
2018-09-12T10:38:08.394Z,23.20
2018-09-12T10:39:12.839Z,23.10
2018-09-12T10:40:17.284Z,23.10
2018-09-12T10:41:21.716Z,23.20
2018-09-12T10:42:25.961Z,23.10
2018-09-12T10:43:30.485Z,23.10
2018-09-12T10:44:34.990Z,23.10
2018-09-12T10:45:39.427Z,23.10
2018-09-12T10:46:43.691Z,23.10
2018-09-12T10:47:48.116Z,23.20
2018-09-12T10:48:52.424Z,23.10
2018-09-12T10:49:57.126Z,23.10
2018-09-12T10:51:02.446Z,23.10
2018-09-12T10:52:08.554Z,23.10
2018-09-12T10:53:12.928Z,23.20
2018-09-12T10:54:17.417Z,23.10
2018-09-12T10:55:21.944Z,23.10
2018-09-12T10:56:26.227Z,23.10
2018-09-12T10:57:30.676Z,23.10
2018-09-12T10:58:35.215Z,23.10
2018-09-12T10:59:39.645Z,23.10
2018-09-12T11:00:44.047Z,23.10
2018-09-12T11:01:48.299Z,23.10
2018-09-12T11:02:52.606Z,23.10
2018-09-12T11:03:57.079Z,23.10
2018-09-12T11:05:01.599Z,23.10
2018-09-12T11:06:06.112Z,23.10
2018-09-12T11:07:10.412Z,23.10
2018-09-12T11:08:14.843Z,23.20
2018-09-12T11:09:19.353Z,23.20
2018-09-12T11:10:23.854Z,23.20
2018-09-12T11:11:28.447Z,23.20
2018-09-12T11:12:34.361Z,23.20
2018-09-12T11:13:38.821Z,23.20
2018-09-12T11:14:43.203Z,23.20
2018-09-12T11:15:47.817Z,23.20
2018-09-12T11:16:52.140Z,23.10
2018-09-12T11:17:56.586Z,23.10
2018-09-12T11:19:01.022Z,23.10
2018-09-12T11:20:05.443Z,23.10
2018-09-12T11:21:09.959Z,23.10
2018-09-12T11:22:14.363Z,23.10
2018-09-12T11:23:18.728Z,23.00
2018-09-12T11:24:23.094Z,23.00
2018-09-12T11:25:27.447Z,23.00
2018-09-12T11:26:32.182Z,23.00
2018-09-12T11:27:36.726Z,23.00
2018-09-12T11:28:41.071Z,23.00
2018-09-12T11:29:45.659Z,23.00
2018-09-12T11:30:50.111Z,23.00
2018-09-12T11:31:54.793Z,23.00
2018-09-12T11:32:59.324Z,23.00
2018-09-12T11:34:03.866Z,22.90
2018-09-12T11:35:08.325Z,23.00
2018-09-12T11:36:12.788Z,23.00
2018-09-12T11:37:17.399Z,23.00
2018-09-12T11:38:21.756Z,23.00
2018-09-12T11:39:26.386Z,22.90
2018-09-12T11:40:30.932Z,23.00
2018-09-12T11:41:35.291Z,23.00
2018-09-12T11:42:39.854Z,23.00
2018-09-12T11:43:45.204Z,23.00
2018-09-12T11:44:49.714Z,23.00
2018-09-12T11:45:54.251Z,23.00
2018-09-12T11:46:58.599Z,23.00
2018-09-12T11:48:02.940Z,23.00
2018-09-12T11:49:07.545Z,23.00
2018-09-12T11:50:12.027Z,23.00
2018-09-12T11:51:16.406Z,22.90
2018-09-12T11:52:20.698Z,22.90
2018-09-12T11:53:25.137Z,23.00
2018-09-12T11:54:29.606Z,22.90
2018-09-12T11:55:34.105Z,22.90
2018-09-12T11:56:38.338Z,22.90
2018-09-12T11:57:42.603Z,22.90
2018-09-12T11:58:46.837Z,22.90
2018-09-12T11:59:51.111Z,22.90
2018-09-12T12:00:55.508Z,22.90
2018-09-12T12:01:59.808Z,22.90
2018-09-12T12:03:04.127Z,22.90
2018-09-12T12:04:08.890Z,22.90
2018-09-12T12:05:13.393Z,22.90
2018-09-12T12:06:17.706Z,22.90
2018-09-12T12:07:22.164Z,22.90
2018-09-12T12:08:26.688Z,22.90
2018-09-12T12:09:30.938Z,22.90
2018-09-12T12:10:35.154Z,22.90
2018-09-12T12:11:39.580Z,22.90
2018-09-12T12:12:43.845Z,22.90
2018-09-12T12:13:48.182Z,22.90
2018-09-12T12:14:52.668Z,22.90
2018-09-12T12:15:57.104Z,22.90
2018-09-12T12:17:01.353Z,22.90
2018-09-12T12:18:05.797Z,22.90
2018-09-12T12:19:10.205Z,22.90
2018-09-12T12:20:14.633Z,22.90
2018-09-12T12:21:23.310Z,22.90
2018-09-12T12:22:27.867Z,22.90
2018-09-12T12:23:32.298Z,22.90
2018-09-12T12:24:36.799Z,22.90
2018-09-12T12:25:41.304Z,22.90
2018-09-12T12:26:45.698Z,23.00
2018-09-12T12:27:50.196Z,23.00
2018-09-12T12:28:54.630Z,23.00
2018-09-12T12:29:59.033Z,23.00
2018-09-12T12:31:03.517Z,23.00
2018-09-12T12:32:07.898Z,23.00
2018-09-12T12:33:12.256Z,23.10
2018-09-12T12:34:16.730Z,23.10
2018-09-12T12:35:21.297Z,23.10
2018-09-12T12:36:25.701Z,23.10
2018-09-12T12:37:30.045Z,23.10
2018-09-12T12:38:34.524Z,23.10
2018-09-12T12:39:39.070Z,23.10
2018-09-12T12:40:43.400Z,23.10
2018-09-12T12:41:47.740Z,23.10
2018-09-12T12:42:52.244Z,23.10
2018-09-12T12:43:56.770Z,23.10
2018-09-12T12:45:01.075Z,23.10
2018-09-12T12:46:05.471Z,23.10
2018-09-12T12:47:09.811Z,23.10
2018-09-12T12:48:14.174Z,23.10
2018-09-12T12:49:18.715Z,23.10
2018-09-12T12:50:23.299Z,23.10
2018-09-12T12:51:27.749Z,23.10
2018-09-12T12:52:32.323Z,23.10
2018-09-12T12:53:36.823Z,23.10
2018-09-12T12:54:41.172Z,23.10
2018-09-12T12:55:45.671Z,23.10
2018-09-12T12:56:50.419Z,23.10
2018-09-12T12:57:54.758Z,23.10
2018-09-12T12:58:59.225Z,23.10
2018-09-12T13:00:03.518Z,23.10
2018-09-12T13:01:08.210Z,23.10
2018-09-12T13:02:12.511Z,23.10
2018-09-12T13:03:17.112Z,23.10
2018-09-12T13:04:21.584Z,23.20
2018-09-12T13:05:26.051Z,23.20
2018-09-12T13:06:30.369Z,23.20
2018-09-12T13:07:34.845Z,23.20
2018-09-12T13:08:39.330Z,23.10
2018-09-12T13:09:43.615Z,23.10
2018-09-12T13:10:48.063Z,23.10
2018-09-12T13:11:52.561Z,23.10
2018-09-12T13:12:57.088Z,23.10
2018-09-12T13:14:01.843Z,23.10
2018-09-12T13:15:06.217Z,23.10
2018-09-12T13:16:10.661Z,23.00
2018-09-12T13:17:15.141Z,23.00
2018-09-12T13:18:20.029Z,23.10
2018-09-12T13:19:24.387Z,23.10
2018-09-12T13:20:29.975Z,23.10
2018-09-12T13:21:34.765Z,23.10
2018-09-12T13:22:38.946Z,23.10
2018-09-12T13:23:43.312Z,23.00
2018-09-12T13:24:47.811Z,23.10
2018-09-12T13:25:52.100Z,23.10
2018-09-12T13:26:56.527Z,23.10
2018-09-12T13:28:00.879Z,23.10
2018-09-12T13:29:05.279Z,23.00
2018-09-12T13:30:09.714Z,23.10
2018-09-12T13:31:13.958Z,23.10
2018-09-12T13:32:18.198Z,23.10
2018-09-12T13:33:22.655Z,23.10
2018-09-12T13:34:26.947Z,23.10
2018-09-12T13:35:31.471Z,23.10
2018-09-12T13:36:35.867Z,23.10
2018-09-12T13:37:40.435Z,23.10
2018-09-12T13:38:44.715Z,23.10
2018-09-12T13:39:49.235Z,23.10
2018-09-12T13:40:53.764Z,23.10
2018-09-12T13:41:58.318Z,23.10
2018-09-12T13:43:03.104Z,23.10
2018-09-12T13:44:07.396Z,23.20
2018-09-12T13:45:11.845Z,23.20
2018-09-12T13:46:16.329Z,23.20
2018-09-12T13:47:20.666Z,23.30
2018-09-12T13:48:25.168Z,23.30
2018-09-12T13:49:29.504Z,23.30